Time;durP1;ratioP1;P1;durP2;ratioP2;P2;SDS_P1;SDS_P2;PMS_P1;PMS_P2;Temp;Humidity;BMP_temperature;BMP_pressure;BME280_temperature;BME280_humidity;BME280_pressure;Samples;Min_cycle;Max_cycle;Signal;HPM_P1;HPM_P2
2022/11/24 00:00:00;;;;;;;58.10;30.20;;;;;;;0.24;88.17;97872.70;86946;1308;23229;-75
2022/11/24 00:02:01;;;;;;;;;;;;;;;0.24;87.90;97870.27;86873;1310;99435;-75
2022/11/24 00:04:04;;;;;;;59.00;28.90;;;;;;;0.24;88.07;97872.19;87093;1309;22433;-75
2022/11/24 00:06:11;;;;;;;61.80;32.10;;;;;;;0.23;87.95;97870.48;86829;1279;99684;-76
2022/11/24 00:08:12;;;;;;;62.30;31.70;;;;;;;0.25;88.18;97875.79;87030;1288;24541;-74
2022/11/24 00:10:13;;;;;;;60.80;29.60;;;;;;;0.26;88.04;97876.11;86962;1311;22490;-74
2022/11/24 00:12:14;;;;;;;63.80;31.10;;;;;;;0.28;88.12;97874.86;86933;1294;100170;-74
2022/11/24 00:14:15;;;;;;;59.30;31.00;;;;;;;0.29;88.02;97874.84;86950;1294;22522;-75
2022/11/24 00:16:27;;;;;;;63.70;30.50;;;;;;;0.30;88.17;97875.83;86962;1300;22508;-75
2022/11/24 00:18:27;;;;;;;;;;;;;;;0.31;88.12;97877.55;87124;1309;99379;-74
2022/11/24 00:20:28;;;;;;;66.20;31.20;;;;;;;0.30;87.97;97875.84;87082;1307;22048;-75
2022/11/24 00:22:29;;;;;;;;;;;;;;;0.30;88.12;97880.51;86890;1297;22426;-75
2022/11/24 00:24:31;;;;;;;50.60;29.30;;;;;;;0.29;88.00;97885.89;87101;1293;85084;-74
2022/11/24 00:26:36;;;;;;;56.10;31.00;;;;;;;0.28;88.11;97890.06;86889;1303;22500;-76
2022/11/24 00:28:38;;;;;;;64.30;33.50;;;;;;;0.29;87.95;97892.10;87156;1286;22693;-76
2022/11/24 00:30:39;;;;;;;56.50;32.20;;;;;;;0.30;87.92;97891.74;86812;1295;98497;-77
2022/11/24 00:32:41;;;;;;;63.00;31.90;;;;;;;0.32;88.11;97892.73;87088;1306;22534;-76
2022/11/24 00:34:42;;;;;;;61.80;33.10;;;;;;;0.33;88.06;97897.88;86942;1297;25384;-77
2022/11/24 00:36:43;;;;;;;59.70;32.00;;;;;;;0.34;87.96;97900.63;86805;1312;99451;-76
2022/11/24 00:38:44;;;;;;;60.00;32.80;;;;;;;0.33;88.00;97901.32;86778;1294;22519;-75
2022/11/24 00:40:45;;;;;;;65.50;32.40;;;;;;;0.36;88.17;97903.69;86805;1287;22552;-75
2022/11/24 00:42:46;;;;;;;61.70;31.30;;;;;;;0.36;87.94;97907.33;86681;1312;97844;-75
2022/11/24 00:44:47;;;;;;;55.90;29.70;;;;;;;0.37;87.98;97907.81;86832;1312;22721;-75
2022/11/24 00:46:48;;;;;;;60.30;32.10;;;;;;;0.39;87.86;97908.45;86921;1303;22521;-75
2022/11/24 00:48:50;;;;;;;63.20;30.90;;;;;;;0.41;88.05;97902.17;86819;1288;99114;-75
2022/11/24 00:50:59;;;;;;;56.40;31.40;;;;;;;0.42;87.90;97906.29;86959;1304;22478;-75
2022/11/24 00:53:00;;;;;;;58.70;30.60;;;;;;;0.43;88.07;97905.91;87005;1286;24276;-74
2022/11/24 00:55:01;;;;;;;59.00;30.10;;;;;;;0.43;87.96;97903.85;86946;1292;97876;-76
2022/11/24 00:57:02;;;;;;;64.10;30.30;;;;;;;0.45;87.88;97901.90;87014;1312;22487;-76
2022/11/24 00:59:03;;;;;;;48.80;28.50;;;;;;;0.46;87.89;97901.02;87154;1304;22477;-76
2022/11/24 01:01:07;;;;;;;61.50;30.30;;;;;;;0.45;88.02;97900.00;87427;1304;97979;-77
2022/11/24 01:03:08;;;;;;;59.90;29.50;;;;;;;0.46;87.97;97907.40;87578;1310;22559;-78
2022/11/24 01:05:10;;;;;;;;;;;;;;;0.46;88.14;97907.06;87811;1314;22474;-78
2022/11/24 01:07:11;;;;;;;52.20;27.40;;;;;;;0.43;88.06;97906.77;87811;1301;84634;-78
2022/11/24 01:09:12;;;;;;;59.90;28.40;;;;;;;0.43;87.84;97909.55;87699;1310;22505;-79
2022/11/24 01:11:14;;;;;;;59.70;29.00;;;;;;;0.45;87.87;97910.38;87748;1308;22641;-78
2022/11/24 01:13:15;;;;;;;56.60;30.80;;;;;;;0.44;88.00;97911.42;87485;1304;97919;-78
2022/11/24 01:15:16;;;;;;;58.40;31.40;;;;;;;0.44;87.89;97912.10;87228;1316;22556;-77
2022/11/24 01:17:18;;;;;;;58.60;31.10;;;;;;;0.45;87.89;97912.27;87226;1293;24250;-76
2022/11/24 01:19:20;;;;;;;58.90;32.40;;;;;;;0.47;87.89;97916.55;86999;1294;97943;-77
2022/11/24 01:21:21;;;;;;;;;;;;;;;0.46;87.86;97918.80;87113;1310;22490;-76
2022/11/24 01:23:22;;;;;;;55.20;29.60;;;;;;;0.44;87.76;97915.76;87317;1285;23372;-76
2022/11/24 01:25:23;;;;;;;;;;;;;;;0.42;88.02;97919.95;87044;1299;97855;-76
2022/11/24 01:27:24;;;;;;;59.10;29.90;;;;;;;0.41;87.96;97917.75;87117;1287;22573;-74
2022/11/24 01:29:25;;;;;;;52.20;29.50;;;;;;;0.42;87.89;97923.75;87018;1313;24240;-77
2022/11/24 01:31:26;;;;;;;55.50;30.70;;;;;;;0.43;88.05;97926.14;87287;1294;100055;-75
2022/11/24 01:33:28;;;;;;;58.80;30.50;;;;;;;0.46;88.17;97925.56;86969;1286;24862;-75
2022/11/24 01:35:28;;;;;;;61.30;29.40;;;;;;;0.47;88.24;97924.84;86941;1312;22969;-75
2022/11/24 01:37:30;;;;;;;63.10;30.50;;;;;;;0.49;87.82;97924.27;86870;1287;98332;-74
2022/11/24 01:39:31;;;;;;;;;;;;;;;0.51;88.17;97923.20;87082;1285;22508;-75
2022/11/24 01:41:33;;;;;;;60.40;29.70;;;;;;;0.51;88.09;97921.98;87056;1310;22499;-75
2022/11/24 01:43:34;;;;;;;56.70;30.50;;;;;;;0.53;88.13;97921.43;86897;1291;98173;-75
2022/11/24 01:45:39;;;;;;;;;;;;;;;0.54;88.31;97923.98;87186;1297;22458;-77
2022/11/24 01:47:40;;;;;;;54.00;26.90;;;;;;;0.54;87.93;97927.09;87397;1310;22174;-76
2022/11/24 01:49:50;;;;;;;56.60;29.40;;;;;;;0.54;88.05;97922.59;86929;1291;97936;-77
2022/11/24 01:51:58;;;;;;;59.90;30.60;;;;;;;0.56;88.26;97920.65;87021;1308;23086;-75
2022/11/24 01:54:04;;;;;;;59.80;31.50;;;;;;;0.57;87.99;97925.13;86900;1280;22467;-76
2022/11/24 01:56:07;;;;;;;63.40;30.40;;;;;;;0.58;88.16;97925.27;87043;1310;24426;-77
2022/11/24 01:58:26;;;;;;;56.70;31.70;;;;;;;0.59;88.26;97931.46;87085;1301;22603;-76
2022/11/24 02:00:27;;;;;;;59.10;29.00;;;;;;;0.59;88.21;97938.02;86837;1287;98071;-76
2022/11/24 02:02:29;;;;;;;67.90;30.40;;;;;;;0.58;88.17;97942.02;86965;1295;22603;-75
2022/11/24 02:04:31;;;;;;;;;;;;;;;0.57;88.18;97946.55;86835;1297;22480;-75
2022/11/24 02:06:37;;;;;;;54.10;27.80;;;;;;;0.55;87.99;97948.67;86777;1294;83926;-76
2022/11/24 02:09:04;;;;;;;57.10;29.70;;;;;;;0.54;87.98;97951.65;86932;1284;22837;-77
2022/11/24 02:11:06;;;;;;;55.90;29.20;;;;;;;0.54;88.20;97953.55;86735;1283;24214;-75
2022/11/24 02:13:07;;;;;;;56.90;28.40;;;;;;;0.53;88.13;97951.15;86877;1309;99042;-76
2022/11/24 02:15:09;;;;;;;58.50;29.80;;;;;;;0.53;88.27;97949.75;86863;1285;22508;-75
2022/11/24 02:17:10;;;;;;;51.00;28.00;;;;;;;0.54;87.97;97951.98;87032;1288;24363;-75
2022/11/24 02:19:23;;;;;;;54.10;28.50;;;;;;;0.54;88.01;97950.44;86709;1297;101510;-75
2022/11/24 02:21:24;;;;;;;53.90;28.40;;;;;;;0.55;88.04;97952.67;87088;1294;22825;-78
2022/11/24 02:23:51;;;;;;;61.70;31.20;;;;;;;0.54;88.11;97953.88;87067;1310;22682;-78
2022/11/24 02:26:03;;;;;;;56.20;28.30;;;;;;;0.55;88.17;97950.59;87233;1291;98129;-76
2022/11/24 02:28:09;;;;;;;55.80;27.20;;;;;;;0.54;88.14;97953.02;87013;1294;22783;-75
2022/11/24 02:30:10;;;;;;;52.30;27.60;;;;;;;0.53;88.00;97954.79;87048;1309;99408;-75
2022/11/24 02:32:11;;;;;;;61.10;29.70;;;;;;;0.52;88.04;97954.29;87216;1294;22546;-74
2022/11/24 02:34:12;;;;;;;57.60;29.70;;;;;;;0.51;88.18;97950.52;86871;1286;22522;-75
2022/11/24 02:36:13;;;;;;;62.90;30.30;;;;;;;0.50;88.22;97955.20;86798;1301;99466;-75
2022/11/24 02:38:14;;;;;;;55.20;29.30;;;;;;;0.49;88.16;97953.82;86938;1288;22521;-76
2022/11/24 02:40:23;;;;;;;57.10;28.20;;;;;;;0.49;88.23;97951.23;86787;1297;22897;-76
2022/11/24 02:42:27;;;;;;;58.50;29.40;;;;;;;0.48;88.34;97950.38;86797;1311;98019;-75
2022/11/24 02:44:33;;;;;;;44.70;25.80;;;;;;;0.36;88.05;97929.76;87140;1287;22471;-75
2022/11/24 02:46:34;;;;;;;60.30;29.50;;;;;;;0.48;88.01;97949.70;87279;1284;22499;-75
2022/11/24 02:48:36;;;;;;;77.40;31.00;;;;;;;0.48;88.14;97951.27;87497;1312;98081;-76
2022/11/24 02:50:37;;;;;;;60.40;31.60;;;;;;;0.48;88.26;97949.88;87920;1312;22529;-75
2022/11/24 02:52:38;;;;;;;61.60;31.10;;;;;;;0.48;88.09;97950.39;87287;1310;22733;-74
2022/11/24 02:54:39;;;;;;;58.40;31.60;;;;;;;0.48;88.24;97948.48;87004;1309;98258;-74
2022/11/24 02:56:43;;;;;;;64.10;30.50;;;;;;;0.48;88.19;97952.64;86914;1312;22975;-75
2022/11/24 02:58:44;;;;;;;56.70;30.30;;;;;;;0.48;87.97;97955.94;86979;1287;25941;-75
2022/11/24 03:00:45;;;;;;;62.20;31.50;;;;;;;0.47;87.98;97956.10;86855;1299;99737;-75
2022/11/24 03:02:48;;;;;;;54.90;29.30;;;;;;;0.48;88.34;97954.34;86829;1311;22511;-75
2022/11/24 03:04:49;;;;;;;60.80;30.00;;;;;;;0.49;87.98;97952.96;87073;1309;22843;-76
2022/11/24 03:06:52;;;;;;;54.60;28.50;;;;;;;0.49;88.02;97951.75;86995;1303;98564;-74
2022/11/24 03:08:53;;;;;;;63.50;29.00;;;;;;;0.50;88.19;97953.12;86841;1308;22581;-75
2022/11/24 03:10:54;;;;;;;60.40;28.30;;;;;;;0.49;88.17;97953.64;86946;1293;23882;-75
2022/11/24 03:12:55;;;;;;;59.80;28.90;;;;;;;0.48;88.23;97954.01;86981;1310;99104;-75
2022/11/24 03:14:58;;;;;;;58.20;29.30;;;;;;;0.49;88.14;97957.62;87005;1293;22503;-75
2022/11/24 03:16:58;;;;;;;61.90;28.70;;;;;;;0.49;88.30;97960.73;86839;1294;22539;-76
2022/11/24 03:19:00;;;;;;;57.70;27.60;;;;;;;0.49;88.15;97953.99;86906;1311;97919;-75
2022/11/24 03:21:01;;;;;;;53.80;28.20;;;;;;;0.48;88.21;97959.56;86916;1288;22524;-75
2022/11/24 03:23:02;;;;;;;59.10;28.70;;;;;;;0.48;88.42;97957.65;86821;1311;24275;-75
2022/11/24 03:25:04;;;;;;;58.90;30.20;;;;;;;0.48;88.22;97956.80;86964;1288;97954;-74
2022/11/24 03:27:05;;;;;;;61.90;28.00;;;;;;;0.47;88.24;97956.13;86848;1286;22482;-74
2022/11/24 03:29:06;;;;;;;55.20;26.70;;;;;;;0.46;88.07;97956.48;87002;1311;22530;-75
2022/11/24 03:31:08;;;;;;;52.00;27.30;;;;;;;0.45;88.15;97955.98;86781;1287;99200;-75
2022/11/24 03:33:09;;;;;;;48.50;26.00;;;;;;;0.45;88.07;97953.75;86877;1297;22513;-76
2022/11/24 03:35:10;;;;;;;44.60;26.80;;;;;;;0.46;88.17;97952.52;86896;1312;22506;-77
2022/11/24 03:37:12;;;;;;;57.80;29.20;;;;;;;0.46;88.19;97956.34;87014;1315;97866;-74
2022/11/24 03:39:13;;;;;;;51.10;28.40;;;;;;;0.45;88.15;97952.70;86833;1297;22588;-75
2022/11/24 03:41:14;;;;;;;57.50;28.00;;;;;;;0.46;88.11;97950.80;87057;1309;25562;-76
2022/11/24 03:43:15;;;;;;;51.90;28.10;;;;;;;0.45;88.43;97954.09;86747;1286;97899;-76
2022/11/24 03:45:16;;;;;;;55.70;28.60;;;;;;;0.45;88.07;97953.74;87070;1312;23751;-75
2022/11/24 03:47:17;;;;;;;50.80;28.20;;;;;;;0.46;88.28;97953.40;87379;1283;22432;-74
2022/11/24 03:49:18;;;;;;;53.60;27.80;;;;;;;0.47;88.39;97954.58;87127;1312;97892;-74
2022/11/24 03:51:19;;;;;;;61.50;28.10;;;;;;;0.47;88.26;97957.66;87271;1286;22538;-77
2022/11/24 03:53:20;;;;;;;46.80;27.30;;;;;;;0.49;88.34;97962.65;87226;1309;22760;-75
2022/11/24 03:55:20;;;;;;;53.10;27.90;;;;;;;0.43;88.07;97958.09;86975;1312;98043;-76
2022/11/24 03:57:22;;;;;;;55.80;28.60;;;;;;;0.48;88.19;97969.92;87083;1312;22885;-76
2022/11/24 03:59:23;;;;;;;54.20;30.10;;;;;;;0.48;88.24;97976.49;87183;1310;22481;-77
2022/11/24 04:01:24;;;;;;;57.60;28.80;;;;;;;0.47;88.19;97977.72;86900;1297;97914;-76
2022/11/24 04:03:25;;;;;;;58.00;28.70;;;;;;;0.47;88.27;97979.45;87130;1291;22500;-75
2022/11/24 04:05:26;;;;;;;;;;;;;;;0.47;88.25;97981.02;86944;1303;23432;-75
2022/11/24 04:07:27;;;;;;;49.90;27.80;;;;;;;0.47;88.27;97981.35;86966;1296;83987;-74
2022/11/24 04:09:28;;;;;;;48.30;26.60;;;;;;;0.47;88.31;97978.23;86903;1311;22659;-74
2022/11/24 04:13:48;;;;;;;51.30;25.90;;;;;;;0.47;88.08;97976.85;86824;1312;98694;-74
2022/11/24 04:15:50;;;;;;;55.90;28.90;;;;;;;0.48;88.23;97979.94;87078;1293;22625;-75
2022/11/24 04:17:54;;;;;;;61.00;28.40;;;;;;;0.48;88.21;97984.45;86957;1293;22556;-74
2022/11/24 04:19:55;;;;;;;48.90;27.00;;;;;;;0.48;88.19;97981.16;86847;1296;98498;-75
2022/11/24 04:21:56;;;;;;;53.90;27.30;;;;;;;0.48;88.20;97982.52;86964;1293;23692;-75
2022/11/24 04:23:56;;;;;;;55.60;27.20;;;;;;;0.48;88.26;97983.05;86914;1294;24324;-75
2022/11/24 04:25:57;;;;;;;62.10;29.50;;;;;;;0.48;88.12;97984.09;86860;1310;98349;-76
2022/11/24 04:27:58;;;;;;;58.50;27.40;;;;;;;0.48;88.05;97988.41;86948;1312;22494;-75
2022/11/24 04:29:59;;;;;;;48.80;27.10;;;;;;;0.48;88.27;97990.14;86899;1289;22654;-75
2022/11/24 04:32:00;;;;;;;51.00;26.20;;;;;;;0.49;88.21;97990.11;87056;1295;99080;-75
2022/11/24 04:34:01;;;;;;;52.10;25.40;;;;;;;0.49;88.32;97991.50;86997;1293;25310;-75
2022/11/24 04:36:02;;;;;;;52.90;28.10;;;;;;;0.50;88.21;97990.09;86956;1315;22573;-74
2022/11/24 04:38:03;;;;;;;55.80;28.20;;;;;;;0.48;88.11;97987.90;86842;1302;98787;-75
2022/11/24 04:40:06;;;;;;;48.10;25.90;;;;;;;0.49;88.04;97992.89;86978;1311;23155;-75
2022/11/24 04:42:07;;;;;;;54.10;28.40;;;;;;;0.49;88.14;97997.02;87113;1291;24075;-75
2022/11/24 04:44:08;;;;;;;48.70;27.60;;;;;;;0.50;88.01;98001.33;86831;1306;97814;-77
2022/11/24 04:46:10;;;;;;;54.90;27.00;;;;;;;0.50;88.06;98003.76;87134;1286;22515;-75
2022/11/24 04:48:11;;;;;;;51.70;25.50;;;;;;;0.51;88.17;98003.74;86882;1295;99160;-77
2022/11/24 04:50:12;;;;;;;49.00;27.40;;;;;;;0.52;88.46;98006.63;86926;1303;22521;-75
2022/11/24 04:52:15;;;;;;;48.80;27.50;;;;;;;0.53;88.09;98005.07;87089;1293;22525;-75
2022/11/24 04:54:15;;;;;;;55.30;26.20;;;;;;;0.53;88.26;98003.17;86884;1309;99738;-74
2022/11/24 04:56:16;;;;;;;56.20;27.30;;;;;;;0.53;88.10;98001.96;87062;1296;25464;-75
2022/11/24 04:58:17;;;;;;;47.60;25.90;;;;;;;0.51;87.98;98001.48;87031;1287;25391;-75
2022/11/24 05:00:19;;;;;;;45.40;24.90;;;;;;;0.52;88.06;98004.74;86941;1287;99402;-77
2022/11/24 05:02:21;;;;;;;53.70;26.60;;;;;;;0.53;88.18;98008.71;87092;1311;22779;-76
2022/11/24 05:04:22;;;;;;;48.10;26.00;;;;;;;0.52;88.07;98010.45;86907;1314;22696;-75
2022/11/24 05:06:24;;;;;;;48.20;26.20;;;;;;;0.53;88.03;98010.42;87101;1300;98173;-76
2022/11/24 05:08:25;;;;;;;50.00;26.00;;;;;;;0.54;88.23;98008.85;86927;1312;23285;-75
2022/11/24 05:10:36;;;;;;;48.20;26.00;;;;;;;0.55;87.94;98012.28;87080;1284;22794;-76
2022/11/24 05:12:38;;;;;;;46.70;26.00;;;;;;;0.55;88.07;98012.80;86862;1308;98569;-75
2022/11/24 05:14:39;;;;;;;45.10;24.10;;;;;;;0.56;88.07;98014.68;86991;1312;23375;-75
2022/11/24 05:16:40;;;;;;;47.80;25.40;;;;;;;0.56;87.93;98016.23;87159;1309;24376;-76
2022/11/24 05:18:41;;;;;;;42.00;24.10;;;;;;;0.57;88.15;98018.45;86931;1315;97954;-75
2022/11/24 05:20:43;;;;;;;51.30;27.30;;;;;;;0.57;88.03;98016.73;87342;1285;22426;-76
2022/11/24 05:22:44;;;;;;;50.70;24.60;;;;;;;0.59;87.91;98019.81;87217;1311;22504;-77
2022/11/24 05:24:45;;;;;;;47.50;25.00;;;;;;;0.59;88.06;98017.39;87127;1310;97870;-75
2022/11/24 05:26:46;;;;;;;43.60;25.60;;;;;;;0.59;88.12;98015.11;86976;1312;23439;-75
2022/11/24 05:28:47;;;;;;;45.90;24.10;;;;;;;0.60;88.19;98015.96;87074;1308;22583;-74
2022/11/24 05:30:48;;;;;;;51.10;26.10;;;;;;;0.61;88.32;98019.39;87008;1316;99065;-77
2022/11/24 05:32:50;;;;;;;50.70;27.10;;;;;;;0.63;88.07;98023.16;87145;1304;24240;-77
2022/11/24 05:34:52;;;;;;;46.80;25.90;;;;;;;0.63;88.00;98021.94;87101;1301;22507;-76
2022/11/24 05:36:53;;;;;;;47.50;27.50;;;;;;;0.63;87.91;98021.77;87012;1305;98578;-75
2022/11/24 05:38:54;;;;;;;49.10;26.90;;;;;;;0.61;88.09;98019.05;87142;1310;25313;-76
2022/11/24 05:41:05;;;;;;;47.50;26.30;;;;;;;0.62;88.10;98018.16;87254;1291;22626;-75
2022/11/24 05:43:14;;;;;;;42.80;24.80;;;;;;;0.66;88.02;98021.86;87094;1309;98843;-76
2022/11/24 05:45:20;;;;;;;56.40;27.40;;;;;;;0.66;88.12;98027.05;87190;1306;23687;-76
2022/11/24 05:47:21;;;;;;;59.20;26.70;;;;;;;0.65;88.12;98030.70;87191;1311;22518;-76
2022/11/24 05:49:22;;;;;;;49.00;25.70;;;;;;;0.67;88.14;98037.77;87370;1307;98347;-75
2022/11/24 05:51:23;;;;;;;49.40;25.60;;;;;;;0.67;87.90;98039.14;87154;1287;23095;-75
2022/11/24 05:53:25;;;;;;;47.40;25.20;;;;;;;0.68;88.17;98039.98;87299;1286;22710;-77
2022/11/24 05:55:26;;;;;;;52.00;27.20;;;;;;;0.68;87.86;98041.38;86946;1314;98641;-75
2022/11/24 05:57:27;;;;;;;50.60;28.20;;;;;;;0.68;87.94;98045.00;87017;1311;22571;-76
2022/11/24 05:59:28;;;;;;;57.10;31.60;;;;;;;0.68;87.99;98047.91;87056;1312;22508;-74
2022/11/24 06:01:29;;;;;;;57.50;31.30;;;;;;;0.70;87.94;98052.39;86963;1307;97808;-76
2022/11/24 06:03:31;;;;;;;61.30;32.20;;;;;;;0.69;87.89;98051.71;86938;1286;22514;-75
2022/11/24 06:05:32;;;;;;;56.40;32.70;;;;;;;0.70;87.94;98053.08;87189;1314;22518;-77
2022/11/24 06:07:33;;;;;;;67.00;32.70;;;;;;;0.68;87.94;98055.19;87107;1314;98573;-74
2022/11/24 06:09:39;;;;;;;56.30;31.10;;;;;;;0.65;87.87;98047.16;86976;1282;24393;-77
2022/11/24 06:11:40;;;;;;;60.70;32.40;;;;;;;0.69;87.80;98056.21;87080;1305;23005;-78
2022/11/24 06:13:41;;;;;;;55.00;30.10;;;;;;;0.68;88.03;98059.19;86963;1314;97924;-78
2022/11/24 06:15:42;;;;;;;55.90;29.20;;;;;;;0.66;87.77;98063.53;86960;1313;22602;-77
2022/11/24 06:17:43;;;;;;;53.30;29.80;;;;;;;0.66;87.85;98062.86;87034;1310;22478;-78
2022/11/24 06:19:46;;;;;;;52.40;29.50;;;;;;;0.65;87.83;98067.88;86942;1307;98990;-76
2022/11/24 06:21:47;;;;;;;51.00;28.70;;;;;;;0.64;87.92;98067.73;87047;1297;22713;-76
2022/11/24 06:23:48;;;;;;;56.90;28.40;;;;;;;0.63;87.97;98069.82;87054;1305;22497;-76
2022/11/24 06:25:49;;;;;;;53.80;29.90;;;;;;;0.62;87.89;98070.73;87054;1292;99131;-77
2022/11/24 06:27:50;;;;;;;54.70;30.30;;;;;;;0.61;87.82;98068.83;87425;1284;22775;-77
2022/11/24 06:29:51;;;;;;;71.30;32.60;;;;;;;0.59;88.11;98067.33;87719;1301;22479;-76
2022/11/24 06:31:52;;;;;;;57.90;31.60;;;;;;;0.57;88.05;98068.40;87521;1301;98359;-78
2022/11/24 06:33:53;;;;;;;65.70;34.60;;;;;;;0.56;87.72;98072.95;87323;1293;24253;-76
2022/11/24 06:36:00;;;;;;;62.60;34.10;;;;;;;0.54;87.94;98075.39;87455;1292;22979;-78
2022/11/24 06:38:01;;;;;;;59.80;33.00;;;;;;;0.53;87.98;98081.13;87237;1310;99112;-77
2022/11/24 06:40:03;;;;;;;69.30;36.90;;;;;;;0.52;87.94;98082.20;87357;1310;25280;-78
2022/11/24 06:42:04;;;;;;;62.40;35.80;;;;;;;0.50;87.89;98079.45;87189;1309;25215;-76
2022/11/24 06:44:06;;;;;;;70.40;35.50;;;;;;;0.49;87.89;98083.27;87422;1310;97694;-78
2022/11/24 06:46:07;;;;;;;68.40;36.80;;;;;;;0.49;87.96;98083.44;87609;1303;22482;-78
2022/11/24 06:48:08;;;;;;;;;;;;;;;0.48;88.28;98080.86;88026;1291;22614;-79
2022/11/24 06:50:09;;;;;;;71.00;35.80;;;;;;;0.47;87.90;98085.55;87228;1303;84086;-77
2022/11/24 06:52:10;;;;;;;73.10;35.80;;;;;;;0.48;88.18;98085.72;87280;1317;22534;-79
2022/11/24 06:54:13;;;;;;;;;;;;;;;0.48;87.98;98092.64;87649;1299;22534;-78
2022/11/24 06:56:18;;;;;;;68.30;33.50;;;;;;;0.47;88.07;98091.27;87167;1305;22987;-77
2022/11/24 06:58:19;;;;;;;64.70;34.60;;;;;;;0.46;87.96;98092.34;87480;1297;22495;-76
2022/11/24 07:00:20;;;;;;;71.30;33.00;;;;;;;0.46;88.10;98091.48;86822;1312;98677;-77
2022/11/24 07:02:21;;;;;;;73.50;34.00;;;;;;;0.46;87.97;98089.91;86805;1310;22467;-78
2022/11/24 07:04:22;;;;;;;70.00;35.50;;;;;;;0.46;88.00;98095.09;86864;1294;22518;-78
2022/11/24 07:06:25;;;;;;;65.20;34.80;;;;;;;0.47;88.11;98097.32;86783;1304;99378;-77
2022/11/24 07:08:27;;;;;;;78.50;34.60;;;;;;;0.47;88.05;98096.63;86895;1292;22517;-76
2022/11/24 07:10:28;;;;;;;75.70;35.40;;;;;;;0.48;88.02;98099.39;86755;1287;26558;-75
2022/11/24 07:12:34;;;;;;;80.90;37.20;;;;;;;0.47;88.13;98098.89;86751;1302;98484;-78
2022/11/24 07:14:35;;;;;;;83.60;36.20;;;;;;;0.46;88.20;98103.38;86901;1310;24126;-77
2022/11/24 07:16:36;;;;;;;76.30;37.00;;;;;;;0.47;88.05;98103.38;86956;1292;22808;-77
2022/11/24 07:18:37;;;;;;;75.00;36.70;;;;;;;0.48;88.31;98105.93;86758;1289;99986;-77
2022/11/24 07:20:38;;;;;;;85.70;38.60;;;;;;;0.49;88.20;98107.98;86879;1295;24267;-78
2022/11/24 07:22:39;;;;;;;80.60;38.20;;;;;;;0.49;88.15;98105.91;87301;1311;22468;-76
2022/11/24 07:24:40;;;;;;;80.80;38.60;;;;;;;0.50;88.25;98109.19;86792;1291;98162;-78
2022/11/24 07:26:41;;;;;;;85.00;38.50;;;;;;;0.51;88.31;98112.62;86926;1294;26468;-76
2022/11/24 07:28:42;;;;;;;88.30;37.00;;;;;;;0.51;88.22;98116.27;86902;1286;24253;-78
2022/11/24 07:30:43;;;;;;;84.30;38.90;;;;;;;0.50;88.50;98114.54;86848;1281;99481;-77
2022/11/24 07:32:44;;;;;;;100.80;38.90;;;;;;;0.49;88.35;98114.55;87125;1310;24378;-78
2022/11/24 07:34:45;;;;;;;89.70;38.20;;;;;;;0.48;88.21;98114.41;87050;1313;22484;-78
2022/11/24 07:36:46;;;;;;;90.60;38.80;;;;;;;0.46;88.19;98117.56;87100;1295;97957;-79
2022/11/24 07:38:48;;;;;;;87.70;37.50;;;;;;;0.43;88.21;98114.67;87690;1297;22504;-79
2022/11/24 07:40:49;;;;;;;;;;;;;;;0.41;88.09;98115.42;87785;1309;24307;-78
2022/11/24 07:42:50;;;;;;;96.60;38.10;;;;;;;0.39;88.24;98113.91;87209;1310;84287;-76
2022/11/24 07:44:51;;;;;;;87.40;37.60;;;;;;;0.37;88.34;98120.00;86928;1294;25390;-77
2022/11/24 07:46:52;;;;;;;80.30;34.70;;;;;;;0.35;88.20;98116.41;86999;1310;22484;-75
2022/11/24 07:48:53;;;;;;;100.40;36.10;;;;;;;0.34;88.35;98116.61;86906;1286;99052;-76
2022/11/24 07:50:57;;;;;;;86.60;38.00;;;;;;;0.33;88.08;98118.70;86854;1288;22472;-75
2022/11/24 07:53:04;;;;;;;86.80;36.60;;;;;;;0.32;88.29;98120.80;87072;1292;22429;-75
2022/11/24 07:55:06;;;;;;;84.90;36.20;;;;;;;0.31;88.45;98118.39;86924;1309;97983;-75
2022/11/24 07:57:07;;;;;;;87.80;37.40;;;;;;;0.30;88.25;98118.59;86849;1293;22530;-73
2022/11/24 07:59:08;;;;;;;75.60;34.30;;;;;;;0.29;88.38;98121.55;86776;1294;23060;-73
2022/11/24 08:01:16;;;;;;;89.50;35.60;;;;;;;0.28;88.12;98121.23;86749;1307;99515;-73
2022/11/24 08:03:17;;;;;;;76.40;34.70;;;;;;;0.27;88.06;98122.98;86796;1300;22478;-73
2022/11/24 08:05:19;;;;;;;80.50;34.90;;;;;;;0.26;88.18;98125.58;86927;1278;23811;-73
2022/11/24 08:07:20;;;;;;;74.90;34.10;;;;;;;0.25;88.39;98126.29;86825;1286;98064;-74
2022/11/24 08:09:21;;;;;;;75.90;34.20;;;;;;;0.25;88.42;98131.30;86852;1292;22491;-73
2022/11/24 08:11:25;;;;;;;69.50;31.70;;;;;;;0.20;88.19;98128.65;86803;1286;24365;-75
2022/11/24 08:13:26;;;;;;;73.20;32.90;;;;;;;0.22;88.21;98134.13;86829;1284;98461;-75
2022/11/24 08:15:27;;;;;;;69.30;33.10;;;;;;;0.21;88.32;98136.39;86905;1278;22441;-72
2022/11/24 08:17:28;;;;;;;65.20;33.90;;;;;;;0.21;88.35;98141.25;86811;1284;22801;-74
2022/11/24 08:19:31;;;;;;;75.60;33.80;;;;;;;0.20;88.26;98142.46;86719;1281;98987;-74
2022/11/24 08:21:32;;;;;;;84.90;34.10;;;;;;;0.19;88.24;98143.88;86768;1284;22516;-74
2022/11/24 08:23:33;;;;;;;78.80;33.20;;;;;;;0.19;88.38;98145.25;87000;1294;22739;-74
2022/11/24 08:25:35;;;;;;;80.50;33.60;;;;;;;0.19;88.34;98146.45;87184;1284;97983;-73
2022/11/24 08:27:38;;;;;;;71.70;32.00;;;;;;;0.19;88.37;98147.84;87584;1296;22526;-76
2022/11/24 08:29:40;;;;;;;83.30;32.90;;;;;;;0.18;88.18;98150.62;87832;1281;22438;-76
2022/11/24 08:31:41;;;;;;;70.60;32.30;;;;;;;0.17;88.28;98148.04;86816;1295;97976;-75
2022/11/24 08:33:42;;;;;;;78.30;34.50;;;;;;;0.17;88.46;98148.21;87005;1286;22462;-75
2022/11/24 08:35:43;;;;;;;90.00;34.80;;;;;;;0.16;88.37;98144.60;87014;1292;22487;-75
2022/11/24 08:37:45;;;;;;;71.20;34.10;;;;;;;0.16;88.38;98146.48;86925;1292;100694;-78
2022/11/24 08:39:46;;;;;;;78.10;34.70;;;;;;;0.16;88.34;98152.38;86929;1284;22600;-76
2022/11/24 08:41:47;;;;;;;70.30;33.10;;;;;;;0.15;88.51;98151.53;86874;1301;25312;-77
2022/11/24 08:43:48;;;;;;;67.10;32.80;;;;;;;0.16;88.63;98156.16;86604;1287;98600;-78
2022/11/24 08:45:49;;;;;;;75.40;35.60;;;;;;;0.16;88.57;98154.61;86644;1288;25084;-75
2022/11/24 08:47:55;;;;;;;72.40;33.50;;;;;;;0.16;88.26;98159.80;86641;1278;22426;-76
2022/11/24 08:49:55;;;;;;;70.50;34.90;;;;;;;0.16;88.46;98158.77;86522;1285;99737;-76
2022/11/24 08:51:57;;;;;;;71.50;35.10;;;;;;;0.16;88.53;98159.12;86381;1289;22588;-77
2022/11/24 08:54:00;;;;;;;80.80;35.60;;;;;;;0.16;88.56;98161.18;86667;1286;25252;-77
2022/11/24 08:56:03;;;;;;;69.10;37.10;;;;;;;0.16;88.66;98163.62;86563;1291;99025;-74
2022/11/24 08:58:04;;;;;;;69.10;35.30;;;;;;;0.16;88.48;98164.80;86927;1278;22472;-74
2022/11/24 09:00:05;;;;;;;76.00;35.70;;;;;;;0.17;88.43;98165.48;86692;1278;23792;-78
2022/11/24 09:02:10;;;;;;;72.70;37.30;;;;;;;0.17;88.52;98167.91;86667;1284;97753;-77
2022/11/24 09:04:14;;;;;;;75.50;36.30;;;;;;;0.17;88.60;98166.88;86700;1284;25105;-77
2022/11/24 09:06:23;;;;;;;73.30;37.70;;;;;;;0.17;88.59;98166.02;86660;1281;99110;-78
2022/11/24 09:08:24;;;;;;;81.80;36.80;;;;;;;0.18;88.50;98163.93;86503;1288;22487;-75
2022/11/24 09:10:25;;;;;;;77.80;37.90;;;;;;;0.19;88.62;98165.13;86815;1283;22496;-77
2022/11/24 09:12:27;;;;;;;81.80;37.30;;;;;;;0.20;88.39;98163.55;86487;1287;98280;-76
2022/11/24 09:14:29;;;;;;;;;;;;;;;0.21;88.43;98164.58;86727;1278;25233;-76
2022/11/24 09:16:30;;;;;;;78.60;37.20;;;;;;;0.20;88.47;98163.73;86803;1294;22502;-77
2022/11/24 09:18:31;;;;;;;75.70;37.30;;;;;;;0.20;88.47;98163.71;86379;1294;98621;-77
2022/11/24 09:20:33;;;;;;;72.00;36.40;;;;;;;0.21;88.65;98163.17;86571;1284;24117;-78
2022/11/24 09:22:34;;;;;;;81.50;38.90;;;;;;;0.22;88.66;98168.34;86909;1283;22478;-78
2022/11/24 09:24:35;;;;;;;81.80;39.50;;;;;;;0.23;88.67;98166.94;86725;1287;99170;-77
2022/11/24 09:26:37;;;;;;;82.30;38.10;;;;;;;0.23;88.43;98168.33;86856;1288;25163;-76
2022/11/24 09:28:39;;;;;;;78.20;40.40;;;;;;;0.24;88.53;98168.14;86893;1287;22528;-78
2022/11/24 09:30:40;;;;;;;77.40;39.90;;;;;;;0.24;88.61;98166.91;86742;1310;98961;-78
2022/11/24 09:32:41;;;;;;;;;;;;;;;0.25;88.76;98168.63;86847;1281;22933;-78